createdAt,value
2018-12-15T00:02:24.443Z,13.95
2018-12-15T00:04:55.452Z,15.23
2018-12-15T00:07:32.930Z,11.15
2018-12-15T00:10:04.812Z,15.23
2018-12-15T00:12:38.748Z,7.67
2018-12-15T00:17:41.030Z,11.03
2018-12-15T00:20:10.213Z,10.15
2018-12-15T00:22:50.413Z,11.85
2018-12-15T00:25:19.669Z,9.90
2018-12-15T00:27:59.918Z,11.25
2018-12-15T00:30:30.513Z,10.25
2018-12-15T00:33:04.049Z,10.13
2018-12-15T00:35:35.422Z,10.28
2018-12-15T00:38:15.562Z,10.80
2018-12-15T00:40:52.824Z,12.05
2018-12-15T00:43:21.950Z,11.35
2018-12-15T00:45:50.820Z,12.25
2018-12-15T00:48:21.733Z,9.25
2018-12-15T00:51:01.922Z,10.03
2018-12-15T00:53:37.082Z,10.93
2018-12-15T00:56:06.374Z,10.13
2018-12-15T00:58:36.938Z,10.70
2018-12-15T01:01:10.697Z,11.57
2018-12-15T01:03:39.694Z,11.50
2018-12-15T01:06:14.206Z,12.35
2018-12-15T01:08:48.085Z,9.70
2018-12-15T01:11:28.644Z,10.53
2018-12-15T01:14:01.753Z,9.45
2018-12-15T01:18:59.543Z,10.68
2018-12-15T01:21:40.034Z,12.68
2018-12-15T01:24:10.449Z,12.00
2018-12-15T01:26:39.316Z,8.08
2018-12-15T01:29:19.500Z,13.58
2018-12-15T01:31:50.063Z,9.00
2018-12-15T01:34:19.120Z,9.08
2018-12-15T01:36:50.065Z,9.70
2018-12-15T01:39:30.682Z,9.08
2018-12-15T01:42:11.320Z,11.83
2018-12-15T01:44:41.883Z,8.23
2018-12-15T01:47:10.945Z,10.00
2018-12-15T01:49:39.872Z,9.50
2018-12-15T01:52:13.625Z,11.63
2018-12-15T01:54:47.436Z,13.22
2018-12-15T01:57:18.603Z,11.50
2018-12-15T01:59:47.370Z,10.65
2018-12-15T02:02:16.293Z,9.78
2018-12-15T02:04:45.200Z,10.40
2018-12-15T02:07:22.640Z,9.90
2018-12-15T02:09:53.875Z,11.60
2018-12-15T02:12:34.294Z,12.20
2018-12-15T02:15:07.514Z,10.85
2018-12-15T02:17:34.984Z,11.57
2018-12-15T02:20:02.550Z,10.18
2018-12-15T02:22:30.022Z,11.68
2018-12-15T02:27:53.674Z,9.73
2018-12-15T02:30:21.129Z,12.43
2018-12-15T02:32:48.689Z,12.58
2018-12-15T02:35:26.466Z,8.43
2018-12-15T02:37:54.722Z,11.38
2018-12-15T02:40:22.176Z,11.78
2018-12-15T02:42:49.625Z,9.23
2018-12-15T02:45:17.054Z,10.23
2018-12-15T02:47:44.498Z,11.08
2018-12-15T02:50:12.073Z,11.18
2018-12-15T02:52:39.608Z,9.35
2018-12-15T02:55:07.211Z,10.23
2018-12-15T02:57:34.646Z,11.63
2018-12-15T03:00:02.211Z,10.88
2018-12-15T03:02:29.780Z,11.68
2018-12-15T03:04:57.234Z,15.60
2018-12-15T03:07:24.704Z,9.23
2018-12-15T03:09:52.154Z,11.70
2018-12-15T03:12:19.608Z,13.68
2018-12-15T03:14:47.041Z,11.10
2018-12-15T03:17:14.600Z,11.30
2018-12-15T03:19:42.105Z,12.70
2018-12-15T03:22:09.530Z,12.07
2018-12-15T03:24:37.083Z,12.05
2018-12-15T03:27:04.608Z,9.75
2018-12-15T03:29:32.046Z,12.45
2018-12-15T03:31:59.497Z,11.30
2018-12-15T03:34:27.022Z,9.50
2018-12-15T03:36:54.462Z,14.47
2018-12-15T03:39:21.912Z,12.55
2018-12-15T03:41:49.576Z,10.95
2018-12-15T03:44:17.012Z,12.80
2018-12-15T03:46:44.463Z,11.75
2018-12-15T03:49:11.900Z,9.45
2018-12-15T03:51:39.348Z,10.45
2018-12-15T03:54:06.786Z,12.90
2018-12-15T03:56:34.228Z,13.85
2018-12-15T03:59:01.786Z,14.63
2018-12-15T04:01:29.302Z,14.03
2018-12-15T04:06:53.137Z,10.75
2018-12-15T04:09:20.583Z,12.07
2018-12-15T04:11:48.024Z,12.70
2018-12-15T04:14:15.534Z,13.78
2018-12-15T04:16:42.996Z,9.75
2018-12-15T04:19:10.432Z,11.85
2018-12-15T04:21:37.878Z,16.77
2018-12-15T04:24:05.426Z,12.73
2018-12-15T04:26:32.939Z,15.28
2018-12-15T04:29:00.382Z,11.35
2018-12-15T04:31:27.850Z,11.90
2018-12-15T04:33:55.294Z,14.15
2018-12-15T04:36:22.729Z,13.30
2018-12-15T04:38:50.171Z,12.00
2018-12-15T04:41:17.642Z,12.78
2018-12-15T04:43:45.211Z,13.03
2018-12-15T04:46:12.889Z,12.30
2018-12-15T04:48:40.340Z,11.30
2018-12-15T04:51:07.799Z,14.95
2018-12-15T04:53:35.240Z,13.78
2018-12-15T04:56:02.672Z,11.40
2018-12-15T04:58:30.206Z,11.38
2018-12-15T05:00:57.678Z,12.50
2018-12-15T05:03:25.133Z,11.95
2018-12-15T05:05:52.571Z,10.25
2018-12-15T05:08:20.008Z,14.40
2018-12-15T05:10:47.465Z,13.00
2018-12-15T05:13:14.970Z,13.55
2018-12-15T05:15:42.550Z,15.18
2018-12-15T05:18:10.006Z,12.33
2018-12-15T05:20:37.434Z,13.88
2018-12-15T05:23:04.964Z,16.90
2018-12-15T05:25:32.419Z,13.32
2018-12-15T05:27:59.855Z,14.87
2018-12-15T05:30:27.298Z,11.35
2018-12-15T05:33:18.078Z,12.37
2018-12-15T05:35:45.646Z,10.72
2018-12-15T05:38:13.164Z,16.60
2018-12-15T05:40:40.622Z,15.20
2018-12-15T05:43:08.099Z,15.32
2018-12-15T05:45:35.548Z,14.60
2018-12-15T05:48:02.983Z,15.32
2018-12-15T05:50:30.424Z,12.28
2018-12-15T05:52:57.891Z,16.17
2018-12-15T05:55:25.341Z,15.68
2018-12-15T05:57:52.774Z,14.85
2018-12-15T06:00:20.274Z,14.38
2018-12-15T06:02:47.874Z,12.70
2018-12-15T06:05:15.542Z,17.12
2018-12-15T06:07:43.004Z,14.90
2018-12-15T06:10:10.451Z,16.42
2018-12-15T06:12:37.894Z,15.78
2018-12-15T06:15:05.815Z,12.75
2018-12-15T06:17:33.265Z,17.55
2018-12-15T06:20:00.706Z,22.60
2018-12-15T06:22:28.142Z,15.15
2018-12-15T06:24:55.595Z,15.53
2018-12-15T06:30:19.879Z,19.65
2018-12-15T06:32:47.411Z,19.07
2018-12-15T06:35:14.854Z,16.48
2018-12-15T06:37:42.314Z,17.37
2018-12-15T06:40:09.826Z,16.95
2018-12-15T06:42:37.275Z,16.00
2018-12-15T06:45:05.598Z,16.15
2018-12-15T06:47:33.046Z,16.48
2018-12-15T06:50:00.546Z,17.00
2018-12-15T06:52:28.008Z,18.17
2018-12-15T06:54:55.484Z,22.37
2018-12-15T06:57:22.929Z,21.10
2018-12-15T06:59:50.369Z,21.05
2018-12-15T07:02:20.817Z,11.83
2018-12-15T07:04:48.293Z,16.70
2018-12-15T07:07:15.735Z,14.28
2018-12-15T07:09:43.172Z,15.28
2018-12-15T07:12:10.641Z,15.40
2018-12-15T07:14:38.138Z,14.03
2018-12-15T07:17:05.660Z,14.35
2018-12-15T07:19:33.146Z,10.65
2018-12-15T07:22:00.632Z,15.83
2018-12-15T07:24:28.071Z,16.55
2018-12-15T07:26:55.527Z,16.20
2018-12-15T07:29:22.982Z,12.40
2018-12-15T07:31:50.436Z,15.63
2018-12-15T07:34:17.902Z,14.38
2018-12-15T07:36:45.355Z,15.60
2018-12-15T07:39:12.799Z,12.75
2018-12-15T07:41:40.236Z,14.07
2018-12-15T07:47:00.315Z,14.90
2018-12-15T07:49:27.738Z,14.55
2018-12-15T07:51:55.187Z,10.15
2018-12-15T07:54:22.671Z,13.68
2018-12-15T07:56:50.119Z,13.83
2018-12-15T07:59:17.572Z,14.30
2018-12-15T08:01:45.077Z,12.20
2018-12-15T08:04:12.514Z,14.33
2018-12-15T08:06:39.951Z,10.78
2018-12-15T08:12:08.779Z,11.03
2018-12-15T08:14:36.272Z,16.62
2018-12-15T08:17:06.734Z,13.68
2018-12-15T08:19:46.924Z,12.50
2018-12-15T08:22:25.940Z,12.37
2018-12-15T08:25:01.821Z,11.83
2018-12-15T08:27:32.264Z,11.35
2018-12-15T08:30:04.772Z,11.70
2018-12-15T08:32:35.232Z,11.65
2018-12-15T08:35:12.842Z,11.68
2018-12-15T08:37:46.786Z,12.30
2018-12-15T08:40:15.667Z,14.95
2018-12-15T08:42:56.241Z,13.30
2018-12-15T08:45:26.806Z,13.00
2018-12-15T08:48:00.700Z,13.32
2018-12-15T08:50:41.612Z,11.40
2018-12-15T08:53:15.460Z,10.45
2018-12-15T08:55:44.683Z,12.88
2018-12-15T08:58:25.061Z,13.83
2018-12-15T09:01:06.147Z,12.13
2018-12-15T09:03:37.319Z,11.70
2018-12-15T09:09:17.017Z,14.58
2018-12-15T09:11:45.992Z,14.78
2018-12-15T09:14:19.692Z,14.28
2018-12-15T09:16:48.779Z,12.65
2018-12-15T09:19:24.178Z,15.10
2018-12-15T09:21:55.471Z,13.38
2018-12-15T09:24:26.565Z,11.48
2018-12-15T09:27:07.183Z,13.95
2018-12-15T09:29:37.676Z,9.50
2018-12-15T09:32:08.347Z,17.12
2018-12-15T09:34:43.136Z,13.13
2018-12-15T09:37:13.755Z,14.73
2018-12-15T09:39:44.860Z,21.42
2018-12-15T09:42:18.673Z,16.37
2018-12-15T09:44:47.816Z,10.93
2018-12-15T09:47:18.935Z,11.45
2018-12-15T09:49:49.912Z,11.53
2018-12-15T09:52:20.222Z,12.98
2018-12-15T09:54:51.401Z,13.98
2018-12-15T09:57:22.759Z,14.00
2018-12-15T09:59:51.742Z,14.45
2018-12-15T10:02:20.918Z,12.82
2018-12-15T10:04:51.716Z,14.05
2018-12-15T10:07:20.895Z,14.60
2018-12-15T10:09:51.985Z,13.68
2018-12-15T10:12:23.079Z,13.88
2018-12-15T10:14:54.300Z,15.15
2018-12-15T10:17:23.474Z,15.38
2018-12-15T10:19:59.290Z,17.45
2018-12-15T10:22:30.118Z,14.40
2018-12-15T10:25:10.285Z,15.43
2018-12-15T10:27:40.844Z,13.00
2018-12-15T10:30:17.757Z,13.65
2018-12-15T10:32:52.727Z,13.45
2018-12-15T10:35:23.585Z,14.90
2018-12-15T10:37:54.417Z,13.40
2018-12-15T10:40:23.859Z,13.98
2018-12-15T10:42:52.886Z,17.07
2018-12-15T10:45:25.055Z,11.45
2018-12-15T10:47:56.098Z,13.03
2018-12-15T10:50:29.882Z,12.68
2018-12-15T10:53:00.436Z,10.68
2018-12-15T10:55:33.584Z,15.20
2018-12-15T10:58:01.976Z,14.00
2018-12-15T11:00:39.141Z,15.68
2018-12-15T11:03:08.324Z,15.98
2018-12-15T11:05:43.104Z,13.70
2018-12-15T11:08:15.749Z,12.65
2018-12-15T11:10:46.797Z,11.68
2018-12-15T11:13:17.967Z,13.50
2018-12-15T11:15:58.150Z,12.60
2018-12-15T11:18:28.775Z,11.20
2018-12-15T11:20:59.711Z,10.55
2018-12-15T11:23:30.904Z,16.75
2018-12-15T11:26:00.006Z,14.10
2018-12-15T11:28:33.945Z,12.10
2018-12-15T11:31:07.959Z,12.98
2018-12-15T11:33:39.328Z,12.90
2018-12-15T11:36:12.953Z,12.23
2018-12-15T11:38:43.451Z,14.53
2018-12-15T11:41:14.537Z,13.25
2018-12-15T11:43:45.752Z,14.40
2018-12-15T11:46:14.782Z,14.28
2018-12-15T11:48:43.876Z,15.70
2018-12-15T11:51:12.894Z,12.98
2018-12-15T11:53:43.981Z,15.10
2018-12-15T11:56:16.986Z,11.10
2018-12-15T11:58:47.589Z,11.78
2018-12-15T12:01:23.316Z,12.20
2018-12-15T12:03:53.767Z,11.40
2018-12-15T12:06:27.805Z,10.10
2018-12-15T12:08:58.894Z,9.58
2018-12-15T12:11:29.918Z,11.20
2018-12-15T12:14:00.513Z,11.53
2018-12-15T12:16:34.093Z,10.75
2018-12-15T12:19:04.562Z,11.95
2018-12-15T12:21:35.839Z,11.53
2018-12-15T12:24:09.780Z,13.32
2018-12-15T12:26:42.907Z,9.58
2018-12-15T12:29:11.404Z,16.50
2018-12-15T12:31:44.716Z,14.03
2018-12-15T12:34:15.709Z,16.90
2018-12-15T12:36:56.394Z,10.88
2018-12-15T12:39:24.964Z,15.18
2018-12-15T12:41:56.358Z,12.47
2018-12-15T12:44:27.476Z,11.73
2018-12-15T12:46:56.373Z,11.93
2018-12-15T12:49:27.388Z,11.22
2018-12-15T12:52:01.049Z,13.90
2018-12-15T12:54:31.630Z,12.88
2018-12-15T12:57:00.790Z,12.45
2018-12-15T12:59:34.626Z,9.60
2018-12-15T13:02:05.945Z,11.20
2018-12-15T13:04:34.921Z,12.05
2018-12-15T13:07:08.058Z,9.38
2018-12-15T13:09:41.891Z,9.10
2018-12-15T13:12:13.041Z,13.03
2018-12-15T13:14:44.228Z,11.48
2018-12-15T13:17:15.108Z,8.90
2018-12-15T13:19:48.847Z,11.45
2018-12-15T13:22:20.105Z,10.30
2018-12-15T13:24:49.134Z,9.25
2018-12-15T13:27:31.360Z,8.83
2018-12-15T13:30:00.587Z,7.62
2018-12-15T13:32:31.888Z,11.10
2018-12-15T13:35:00.942Z,11.33
2018-12-15T13:37:34.893Z,12.82
2018-12-15T13:40:14.706Z,11.75
2018-12-15T13:42:54.555Z,11.55
2018-12-15T13:45:25.313Z,10.90
2018-12-15T13:47:56.411Z,14.55
2018-12-15T13:50:30.187Z,9.10
2018-12-15T13:53:04.157Z,10.60
2018-12-15T13:55:35.165Z,12.43
2018-12-15T13:58:08.533Z,14.68
2018-12-15T14:00:39.923Z,12.33
2018-12-15T14:03:08.730Z,11.43
2018-12-15T14:05:46.598Z,10.70
2018-12-15T14:08:19.743Z,16.20
2018-12-15T14:10:53.059Z,12.78
2018-12-15T14:13:24.388Z,20.30
2018-12-15T14:15:55.610Z,12.65
2018-12-15T14:18:24.724Z,17.35
2018-12-15T14:20:58.405Z,15.03
2018-12-15T14:23:28.878Z,10.03
2018-12-15T14:25:57.654Z,10.40
2018-12-15T14:31:00.482Z,14.05
2018-12-15T14:33:31.916Z,10.32
2018-12-15T14:36:02.918Z,15.53
2018-12-15T14:38:40.767Z,12.47
2018-12-15T14:41:14.863Z,12.35
2018-12-15T14:43:50.823Z,10.65
2018-12-15T14:46:26.730Z,10.65
2018-12-15T14:48:58.017Z,9.85
2018-12-15T14:51:27.227Z,9.05
2018-12-15T14:53:56.249Z,11.55
2018-12-15T14:56:25.201Z,13.65
2018-12-15T14:58:56.381Z,19.20
2018-12-15T15:01:27.408Z,13.25
2018-12-15T15:03:58.587Z,12.03
2018-12-15T15:06:31.586Z,9.98
2018-12-15T15:09:05.031Z,10.78
2018-12-15T15:11:35.761Z,14.18
2018-12-15T15:14:05.058Z,12.45
2018-12-15T15:16:38.543Z,13.20
2018-12-15T15:19:09.035Z,16.60
2018-12-15T15:21:42.860Z,11.03
2018-12-15T15:24:14.025Z,14.53
2018-12-15T15:26:45.080Z,15.78
2018-12-15T15:29:16.004Z,12.28
2018-12-15T15:31:56.402Z,14.35
2018-12-15T15:34:29.730Z,14.87
2018-12-15T15:37:01.067Z,13.18
2018-12-15T15:39:34.911Z,13.25
2018-12-15T15:42:04.080Z,12.75
2018-12-15T15:44:44.139Z,12.30
2018-12-15T15:47:13.229Z,11.25
2018-12-15T15:49:55.345Z,13.25
2018-12-15T15:52:37.265Z,14.25
2018-12-15T15:55:07.680Z,12.25
2018-12-15T15:57:38.477Z,12.07
2018-12-15T16:00:15.882Z,13.55
2018-12-15T16:02:49.792Z,10.23
2018-12-15T16:05:30.006Z,12.98
2018-12-15T16:08:04.161Z,14.93
2018-12-15T16:10:37.906Z,14.60
2018-12-15T16:13:08.877Z,11.80
2018-12-15T16:15:46.541Z,15.38
2018-12-15T16:18:27.069Z,13.20
2018-12-15T16:21:00.274Z,11.97
2018-12-15T16:23:31.261Z,20.00
2018-12-15T16:26:02.097Z,13.20
2018-12-15T16:28:31.142Z,12.95
2018-12-15T16:31:02.216Z,13.95
2018-12-15T16:33:31.462Z,12.23
2018-12-15T16:36:05.124Z,11.90
2018-12-15T16:38:39.047Z,10.75
2018-12-15T16:41:12.808Z,12.30
2018-12-15T16:43:46.529Z,15.13
2018-12-15T16:49:26.734Z,12.93
2018-12-15T16:51:57.959Z,11.95
2018-12-15T16:54:38.373Z,13.03
2018-12-15T16:57:09.516Z,12.90
2018-12-15T16:59:43.041Z,16.62
2018-12-15T17:02:23.714Z,14.30
2018-12-15T17:04:56.997Z,13.98
2018-12-15T17:07:28.255Z,14.68
2018-12-15T17:09:58.797Z,15.15
2018-12-15T17:12:39.202Z,12.70
2018-12-15T17:15:19.218Z,12.58
2018-12-15T17:17:52.537Z,16.17
2018-12-15T17:20:35.829Z,16.12
2018-12-15T17:23:06.486Z,14.73
2018-12-15T17:25:46.717Z,12.60
2018-12-15T17:28:17.202Z,11.95
2018-12-15T17:30:57.477Z,11.93
2018-12-15T17:33:30.593Z,12.37
2018-12-15T17:36:01.557Z,15.35
2018-12-15T17:38:42.026Z,14.53
2018-12-15T17:41:15.161Z,13.05
2018-12-15T17:43:48.969Z,16.67
2018-12-15T17:46:19.337Z,13.03
2018-12-15T17:48:48.397Z,17.05
2018-12-15T17:51:19.330Z,20.45
2018-12-15T17:53:50.164Z,16.65
2018-12-15T17:56:21.293Z,14.85
2018-12-15T17:58:58.929Z,12.88
2018-12-15T18:01:36.069Z,15.23
2018-12-15T18:04:17.560Z,30.05
2018-12-15T18:06:47.793Z,27.42
2018-12-15T18:09:18.761Z,17.12
2018-12-15T18:11:49.926Z,15.93
2018-12-15T18:14:18.997Z,25.92
2018-12-15T18:16:49.685Z,33.65
2018-12-15T18:19:27.579Z,29.20
2018-12-15T18:22:01.297Z,20.12
2018-12-15T18:24:41.746Z,15.72
2018-12-15T18:27:12.282Z,23.27
2018-12-15T18:29:41.236Z,19.52
2018-12-15T18:32:14.767Z,14.60
2018-12-15T18:34:55.401Z,17.32
2018-12-15T18:37:25.742Z,14.28
2018-12-15T18:40:03.962Z,17.42
2018-12-15T18:42:34.512Z,17.60
2018-12-15T18:45:08.281Z,15.08
2018-12-15T18:47:39.441Z,17.92
2018-12-15T18:50:20.011Z,24.00
2018-12-15T18:52:54.027Z,14.87
2018-12-15T18:55:23.249Z,14.87
2018-12-15T18:57:54.279Z,17.82
2018-12-15T19:00:24.937Z,17.98
2018-12-15T19:03:02.497Z,20.48
2018-12-15T19:05:33.637Z,16.85
2018-12-15T19:08:11.092Z,17.82
2018-12-15T19:10:42.171Z,14.15
2018-12-15T19:13:11.136Z,19.30
2018-12-15T19:15:39.792Z,17.65
2018-12-15T19:18:11.046Z,15.53
2018-12-15T19:20:41.837Z,16.02
2018-12-15T19:23:15.667Z,18.67
2018-12-15T19:25:46.408Z,18.10
2018-12-15T19:28:13.856Z,17.80
2018-12-15T19:30:54.239Z,18.40
2018-12-15T19:33:34.212Z,19.60
2018-12-15T19:36:04.818Z,17.10
2018-12-15T19:38:35.776Z,18.40
2018-12-15T19:44:09.972Z,15.68
2018-12-15T19:46:45.920Z,14.35
2018-12-15T19:49:26.742Z,20.65
2018-12-15T19:52:00.039Z,17.40
2018-12-15T19:54:30.906Z,17.77
2018-12-15T19:56:59.888Z,19.27
2018-12-15T19:59:28.824Z,15.70
2018-12-15T20:02:02.839Z,15.50
2018-12-15T20:04:33.732Z,16.95
2018-12-15T20:07:04.341Z,16.12
2018-12-15T20:09:44.765Z,18.27
2018-12-15T20:12:18.888Z,17.67
2018-12-15T20:14:51.021Z,16.62
2018-12-15T20:17:21.627Z,14.47
2018-12-15T20:20:01.992Z,19.62
2018-12-15T20:22:42.738Z,16.42
2018-12-15T20:25:20.442Z,13.45
2018-12-15T20:27:51.809Z,16.42
2018-12-15T20:33:28.886Z,20.80
2018-12-15T20:36:02.722Z,17.82
2018-12-15T20:38:31.810Z,16.70
2018-12-15T20:41:03.824Z,15.90
2018-12-15T20:43:34.797Z,19.32
2018-12-15T20:46:05.822Z,15.15
2018-12-15T20:48:40.490Z,17.42
2018-12-15T20:51:21.372Z,16.80
2018-12-15T20:53:52.011Z,15.88
2018-12-15T20:56:26.191Z,17.98
2018-12-15T20:58:56.654Z,15.38
2018-12-15T21:01:34.534Z,16.30
2018-12-15T21:04:05.422Z,13.15
2018-12-15T21:06:36.460Z,14.87
2018-12-15T21:09:10.057Z,18.20
2018-12-15T21:11:47.788Z,17.48
2018-12-15T21:14:21.670Z,20.40
2018-12-15T21:16:50.908Z,14.53
2018-12-15T21:19:21.824Z,17.20
2018-12-15T21:21:52.678Z,20.72
2018-12-15T21:24:26.681Z,16.67
2018-12-15T21:27:01.126Z,15.68
2018-12-15T21:29:31.843Z,18.73
2018-12-15T21:32:07.465Z,15.20
2018-12-15T21:34:39.551Z,16.97
2018-12-15T21:37:13.412Z,17.40
2018-12-15T21:39:47.846Z,13.80
2018-12-15T21:42:19.431Z,18.07
2018-12-15T21:44:51.130Z,15.63
2018-12-15T21:47:24.994Z,18.77
2018-12-15T21:49:56.123Z,17.12
2018-12-15T21:52:25.710Z,14.50
2018-12-15T21:54:57.130Z,16.80
2018-12-15T21:57:28.384Z,17.27
2018-12-15T22:00:02.627Z,18.85
2018-12-15T22:02:36.107Z,17.20
2018-12-15T22:05:07.130Z,18.07
2018-12-15T22:07:45.228Z,15.55
2018-12-15T22:10:18.800Z,17.37
2018-12-15T22:12:49.254Z,16.02
2018-12-15T22:15:19.647Z,17.37
2018-12-15T22:17:50.821Z,17.45
2018-12-15T22:20:24.915Z,17.32
2018-12-15T22:22:58.679Z,16.02
2018-12-15T22:25:29.858Z,16.48
2018-12-15T22:27:58.557Z,19.20
2018-12-15T22:30:29.093Z,16.12
2018-12-15T22:32:59.704Z,16.25
2018-12-15T22:35:33.501Z,15.38
2018-12-15T22:38:04.826Z,19.87
2018-12-15T22:40:36.003Z,15.60
2018-12-15T22:43:07.102Z,19.75
2018-12-15T22:45:38.262Z,15.55
2018-12-15T22:48:06.912Z,23.57
2018-12-15T22:50:35.887Z,21.35
2018-12-15T22:53:07.151Z,17.73
2018-12-15T22:55:35.890Z,15.43
2018-12-15T22:58:06.269Z,19.87
2018-12-15T23:00:43.304Z,21.73
2018-12-15T23:03:12.619Z,17.62
2018-12-15T23:05:43.168Z,16.77
2018-12-15T23:08:14.322Z,17.85
2018-12-15T23:10:45.329Z,17.92
2018-12-15T23:13:16.380Z,22.40
2018-12-15T23:15:45.575Z,18.42
2018-12-15T23:18:14.635Z,20.68
2018-12-15T23:20:45.019Z,16.85
2018-12-15T23:23:15.910Z,18.35
2018-12-15T23:25:47.506Z,16.90
2018-12-15T23:28:16.144Z,20.40
2018-12-15T23:30:47.357Z,19.65
2018-12-15T23:33:18.149Z,19.55
2018-12-15T23:35:47.110Z,19.25
2018-12-15T23:38:20.942Z,21.82
2018-12-15T23:40:54.963Z,18.98
2018-12-15T23:43:28.239Z,21.00
2018-12-15T23:45:57.044Z,20.68
2018-12-15T23:48:27.892Z,19.23
2018-12-15T23:51:01.978Z,19.48
2018-12-15T23:53:31.332Z,19.70
2018-12-15T23:56:02.295Z,17.77
2018-12-15T23:58:31.462Z,19.45
